Etusivu
METAR-TAF:

METAR-TAF

Lentoasemat :

Amman, Jordania

Leveyspiiri: 31-59N, Pituuspiiri: 035-59E, korkeus merenpinnasta: 767 m

Tämänhetkinen sää

Tämä raportti tehtiin 28 minuuttia sitten, kello 09.00 UTC
Tuuli 5 kn idästä
Lämpötila 17°C
Kosteus 55%
Ilmanpaine 1020 hPa
Näkyvyys: 5000 m
Hajonneita pilviä 3500 ft:n korkeudessa, Kasvava cumulus-pilvi.
usvaa

METAR: OJAM 190900Z 09005KT 5000 HZ BKN035TCU 17/08 Q1020 NOSIG

Aika: 11:28 (09:28 UTC)

Sääennuste

Tämä raportti tehtiin 4 tuntia ja 28 minuuttia sitten, kello 05.00 UTC
Ennuste voimassa 19. päivästä klo 06 UTC - 20. päivään klo 12 UTC
Tuuli 8 kn idästä/kaakosta
Näkyvyys: 5000 m
Muutamia pilviä 4000 ft:n korkeudessa
usvaa
Ajoittain
19. päivästä klo 06 UTC - 19. päivään klo 12 UTC
Näkyvyys: 4000 m
Muutamia pilviä 3000 ft:n korkeudessa
Hajanaisia pilviä 8000 ft:n korkeudessa
heikkoa sadetta

TAF: OJAM 190500Z 1906/2012 11008KT 5000 HZ FEW040 TEMPO 1906/1912 4000 -RA FEW030 SCT080

Säähavainnot ja -ennusteet yli 4000 lentoasemalta (METAR- ja TAF-raportit).

Käytössä olevat sääasemat on merkitty karttaan keltaisilla ja punaisilla pisteillä.

Aseta hiiri pisteen päälle nähdäksesi sääaseman nimen.

Klikkaa sitten nähdäksesi säähavainnot ja -ennusteet.

Kartan vaihtaminen: klikkaa mustalla rastilla varustettuja vihreitä pisteitä, niin voit zoomata sisään; viivalla varustettua vihreää pistettä, niin voit zoomata ulos tai vihreitä nuolia, niin pääset viereisille kartoille.


METAR-TAF: